createdAt,value
2023-02-11T00:01:38.537Z,-3.26
2023-02-11T00:04:06.378Z,-3.13
2023-02-11T00:06:34.024Z,-3.08
2023-02-11T00:09:01.631Z,-3.19
2023-02-11T00:11:30.444Z,-3.14
2023-02-11T00:14:03.387Z,-3.12
2023-02-11T00:16:31.169Z,-3.14
2023-02-11T00:19:01.814Z,-3.28
2023-02-11T00:21:28.802Z,-3.29
2023-02-11T00:23:57.167Z,-3.37
2023-02-11T00:26:32.387Z,-3.38
2023-02-11T00:29:00.820Z,-3.36
2023-02-11T00:31:27.874Z,-3.35
2023-02-11T00:33:54.942Z,-3.41
2023-02-11T00:36:24.830Z,-3.34
2023-02-11T00:38:52.617Z,-3.36
2023-02-11T00:41:20.122Z,-3.39
2023-02-11T00:43:48.545Z,-3.44
2023-02-11T00:46:15.906Z,-3.28
2023-02-11T00:48:43.603Z,-3.34
2023-02-11T00:51:10.262Z,-3.65
2023-02-11T00:53:37.135Z,-3.41
2023-02-11T00:56:04.227Z,-3.45
2023-02-11T00:58:33.071Z,-3.49
2023-02-11T01:00:59.790Z,-3.58
2023-02-11T01:03:26.651Z,-3.57
2023-02-11T01:05:53.241Z,-3.52
2023-02-11T01:08:20.902Z,-3.60
2023-02-11T01:10:58.073Z,-3.61
2023-02-11T01:13:32.686Z,-3.51
2023-02-11T01:15:59.328Z,-3.68
2023-02-11T01:18:26.644Z,-3.57
2023-02-11T01:20:53.817Z,-3.64
2023-02-11T01:23:20.390Z,-3.48
2023-02-11T01:25:47.523Z,-3.44
2023-02-11T01:28:25.166Z,-3.48
2023-02-11T01:30:51.847Z,-3.52
2023-02-11T01:33:18.336Z,-3.57
2023-02-11T01:35:45.035Z,-3.51
2023-02-11T01:38:26.042Z,-3.52
2023-02-11T01:41:04.069Z,-3.59
2023-02-11T01:43:58.531Z,-3.63
2023-02-11T01:46:31.535Z,-3.56
2023-02-11T01:49:06.831Z,-3.58
2023-02-11T01:51:48.187Z,-3.53
2023-02-11T01:54:38.098Z,-3.55
2023-02-11T01:57:25.270Z,-3.54
2023-02-11T02:00:05.031Z,-3.55
2023-02-11T02:02:40.625Z,-3.47
2023-02-11T02:05:17.452Z,-3.65
2023-02-11T02:07:54.247Z,-3.60
2023-02-11T02:10:25.594Z,-3.46
2023-02-11T02:12:53.809Z,-3.53
2023-02-11T02:15:28.693Z,-3.50
2023-02-11T02:18:45.176Z,-3.47
2023-02-11T02:21:45.002Z,-3.45
2023-02-11T02:24:41.782Z,-3.41
2023-02-11T02:27:41.197Z,-3.36
2023-02-11T02:30:10.536Z,-3.45
2023-02-11T02:32:48.988Z,-3.33
2023-02-11T02:35:24.499Z,-3.28
2023-02-11T02:38:20.086Z,-3.36
2023-02-11T02:41:02.596Z,-3.29
2023-02-11T02:43:30.607Z,-3.34
2023-02-11T02:46:10.441Z,-3.25
2023-02-11T02:48:36.941Z,-3.01
2023-02-11T02:51:27.466Z,-3.19
2023-02-11T02:54:08.372Z,-3.18
2023-02-11T02:56:47.060Z,-3.22
2023-02-11T02:59:20.051Z,-3.27
2023-02-11T03:01:54.696Z,-3.23
2023-02-11T03:04:59.300Z,-3.21
2023-02-11T03:07:51.333Z,-3.20
2023-02-11T03:10:23.663Z,-3.22
2023-02-11T03:12:52.688Z,-3.16
2023-02-11T03:15:21.778Z,-3.24
2023-02-11T03:17:51.760Z,-3.07
2023-02-11T03:20:21.517Z,-3.11
2023-02-11T03:22:53.241Z,-3.13
2023-02-11T03:25:22.545Z,-3.14
2023-02-11T03:28:00.534Z,-3.09
2023-02-11T03:30:35.172Z,-3.06
2023-02-11T03:33:12.592Z,-3.07
2023-02-11T03:35:53.343Z,-3.23
2023-02-11T03:38:38.157Z,-3.17
2023-02-11T03:41:08.097Z,-3.14
2023-02-11T03:43:42.587Z,-3.22
2023-02-11T03:46:10.767Z,-3.31
2023-02-11T03:48:41.913Z,-3.22
2023-02-11T03:51:10.846Z,-3.17
2023-02-11T03:53:40.466Z,-3.26
2023-02-11T03:56:13.361Z,-3.09
2023-02-11T03:58:39.812Z,-3.01
2023-02-11T04:01:09.908Z,-3.06
2023-02-11T04:03:36.686Z,-3.01
2023-02-11T04:06:06.779Z,-2.97
2023-02-11T04:08:33.347Z,-2.91
2023-02-11T04:10:59.738Z,-2.95
2023-02-11T04:13:27.269Z,-2.90
2023-02-11T04:15:54.007Z,-2.90
2023-02-11T04:18:20.822Z,-2.86
2023-02-11T04:20:48.481Z,-2.81
2023-02-11T04:23:14.937Z,-2.78
2023-02-11T04:25:42.168Z,-2.86
2023-02-11T04:28:08.700Z,-2.81
2023-02-11T04:30:35.216Z,-2.92
2023-02-11T04:33:01.633Z,-2.86
2023-02-11T04:35:28.032Z,-2.82
2023-02-11T04:37:56.733Z,-2.94
2023-02-11T04:40:23.214Z,-2.91
2023-02-11T04:42:49.680Z,-2.99
2023-02-11T04:45:16.147Z,-2.95
2023-02-11T04:47:42.573Z,-2.80
2023-02-11T04:50:09.310Z,-2.72
2023-02-11T04:52:35.765Z,-2.64
2023-02-11T04:55:02.159Z,-2.69
2023-02-11T04:57:29.550Z,-2.69
2023-02-11T04:59:56.055Z,-2.71
2023-02-11T05:02:26.713Z,-2.84
2023-02-11T05:04:53.155Z,-2.80
2023-02-11T05:07:19.606Z,-2.89
2023-02-11T05:09:46.007Z,-2.70
2023-02-11T05:12:14.795Z,-2.69
2023-02-11T05:14:41.296Z,-2.59
2023-02-11T05:17:08.195Z,-2.54
2023-02-11T05:19:34.602Z,-2.62
2023-02-11T05:22:03.395Z,-2.57
2023-02-11T05:24:32.356Z,-2.51
2023-02-11T05:26:58.829Z,-2.49
2023-02-11T05:29:25.257Z,-2.37
2023-02-11T05:31:52.857Z,-2.38
2023-02-11T05:34:19.365Z,-2.40
2023-02-11T05:36:47.801Z,-2.38
2023-02-11T05:39:16.258Z,-2.27
2023-02-11T05:41:42.728Z,-2.31
2023-02-11T05:44:10.207Z,-2.23
2023-02-11T05:46:36.761Z,-2.17
2023-02-11T05:49:03.518Z,-2.27
2023-02-11T05:51:31.955Z,-2.33
2023-02-11T05:53:58.411Z,-2.26
2023-02-11T05:56:24.864Z,-2.29
2023-02-11T05:58:51.386Z,-2.14
2023-02-11T06:01:17.878Z,-2.22
2023-02-11T06:03:44.321Z,-2.28
2023-02-11T06:06:13.887Z,-2.21
2023-02-11T06:08:40.424Z,-2.11
2023-02-11T06:11:07.298Z,-1.99
2023-02-11T06:13:35.477Z,-1.93
2023-02-11T06:16:03.087Z,-1.82
2023-02-11T06:18:29.745Z,-1.79
2023-02-11T06:20:56.565Z,-1.83
2023-02-11T06:23:23.154Z,-1.87
2023-02-11T06:25:50.096Z,-1.86
2023-02-11T06:28:19.574Z,-1.90
2023-02-11T06:30:46.143Z,-1.89
2023-02-11T06:33:12.624Z,-1.82
2023-02-11T06:35:39.670Z,-1.68
2023-02-11T06:38:06.175Z,-1.69
2023-02-11T06:40:32.660Z,-1.73
2023-02-11T06:43:00.165Z,-1.71
2023-02-11T06:45:26.945Z,-1.66
2023-02-11T06:47:53.435Z,-1.73
2023-02-11T06:50:22.039Z,-1.70
2023-02-11T06:52:48.978Z,-1.60
2023-02-11T06:55:15.446Z,-1.54
2023-02-11T06:57:41.958Z,-1.66
2023-02-11T07:00:09.147Z,-1.54
2023-02-11T07:02:36.080Z,-1.47
2023-02-11T07:05:02.503Z,-1.40
2023-02-11T07:07:34.002Z,-1.34
2023-02-11T07:10:00.975Z,-1.37
2023-02-11T07:12:28.424Z,-1.38
2023-02-11T07:14:56.492Z,-1.34
2023-02-11T07:17:24.030Z,-1.25
2023-02-11T07:19:50.530Z,-1.24
2023-02-11T07:22:17.047Z,-1.29
2023-02-11T07:24:43.717Z,-1.25
2023-02-11T07:27:11.122Z,-1.08
2023-02-11T07:29:37.660Z,-1.10
2023-02-11T07:32:04.223Z,-1.03
2023-02-11T07:34:30.707Z,-0.95
2023-02-11T07:36:57.153Z,-0.83
2023-02-11T07:39:27.249Z,-0.76
2023-02-11T07:41:54.503Z,-0.82
2023-02-11T07:44:20.964Z,-0.75
2023-02-11T07:46:53.291Z,-0.71
2023-02-11T07:49:19.840Z,-0.64
2023-02-11T07:51:47.333Z,-0.57
2023-02-11T07:54:13.820Z,-0.40
2023-02-11T07:56:40.321Z,-0.27
2023-02-11T07:59:07.188Z,-0.12
2023-02-11T08:01:33.678Z,-0.04
2023-02-11T08:04:02.023Z,-0.01
2023-02-11T08:06:33.191Z,-0.05
2023-02-11T08:09:05.899Z,-0.03
2023-02-11T08:11:38.111Z,-0.06
2023-02-11T08:14:04.495Z,0.01
2023-02-11T08:16:34.198Z,0.11
2023-02-11T08:19:07.420Z,0.19
2023-02-11T08:21:34.259Z,0.24
2023-02-11T08:24:03.812Z,0.34
2023-02-11T08:26:34.439Z,0.37
2023-02-11T08:29:03.078Z,0.48
2023-02-11T08:31:35.144Z,0.55
2023-02-11T08:34:02.481Z,0.55
2023-02-11T08:36:31.277Z,0.63
2023-02-11T08:39:18.103Z,0.74
2023-02-11T08:41:48.781Z,0.87
2023-02-11T08:44:15.749Z,0.83
2023-02-11T08:46:42.163Z,0.84
2023-02-11T08:49:08.686Z,0.92
2023-02-11T08:51:35.244Z,0.80
2023-02-11T08:54:02.202Z,0.77
2023-02-11T08:56:31.572Z,0.76
2023-02-11T08:59:03.878Z,0.73
2023-02-11T09:01:31.592Z,0.78
2023-02-11T09:03:59.247Z,0.81
2023-02-11T09:06:26.443Z,0.95
2023-02-11T09:09:02.199Z,1.02
2023-02-11T09:11:46.114Z,0.90
2023-02-11T09:14:21.280Z,0.98
2023-02-11T09:16:48.540Z,1.01
2023-02-11T09:19:17.957Z,1.22
2023-02-11T09:21:44.586Z,1.34
2023-02-11T09:24:13.077Z,1.43
2023-02-11T09:26:49.744Z,1.54
2023-02-11T09:29:16.191Z,1.43
2023-02-11T09:31:42.810Z,1.61
2023-02-11T09:34:11.437Z,1.65
2023-02-11T09:36:41.551Z,1.71
2023-02-11T09:39:13.138Z,1.57
2023-02-11T09:41:39.478Z,1.67
2023-02-11T09:44:44.482Z,1.68
2023-02-11T09:47:31.870Z,1.64
2023-02-11T09:50:11.250Z,1.67
2023-02-11T09:52:43.833Z,1.79
2023-02-11T09:55:27.403Z,1.94
2023-02-11T09:57:53.985Z,1.83
2023-02-11T10:00:39.111Z,1.98
2023-02-11T10:03:15.844Z,1.90
2023-02-11T10:06:05.277Z,2.09
2023-02-11T10:08:40.795Z,2.00
2023-02-11T10:11:31.325Z,2.19
2023-02-11T10:14:19.239Z,2.26
2023-02-11T10:16:58.540Z,2.41
2023-02-11T10:19:36.712Z,2.47
2023-02-11T10:22:22.323Z,2.75
2023-02-11T10:24:54.136Z,2.47
2023-02-11T10:27:28.675Z,2.45
2023-02-11T10:30:02.787Z,2.53
2023-02-11T10:32:38.203Z,2.63
2023-02-11T10:35:15.554Z,2.79
2023-02-11T10:37:44.460Z,2.72
2023-02-11T10:40:20.213Z,2.91
2023-02-11T10:42:55.367Z,2.92
2023-02-11T10:45:28.060Z,2.91
2023-02-11T10:47:55.242Z,2.94
2023-02-11T10:50:29.000Z,2.92
2023-02-11T10:53:21.630Z,2.87
2023-02-11T10:55:55.616Z,2.98
2023-02-11T10:58:35.240Z,3.03
2023-02-11T11:01:01.735Z,3.10
2023-02-11T11:03:48.804Z,3.00
2023-02-11T11:06:15.974Z,3.03
2023-02-11T11:08:51.558Z,3.02
2023-02-11T11:11:21.682Z,3.18
2023-02-11T11:13:54.067Z,3.15
2023-02-11T11:16:33.070Z,3.21
2023-02-11T11:19:13.542Z,3.35
2023-02-11T11:21:49.342Z,3.46
2023-02-11T11:24:18.442Z,3.38
2023-02-11T11:26:48.576Z,3.30
2023-02-11T11:29:27.275Z,3.44
2023-02-11T11:32:01.289Z,3.60
2023-02-11T11:34:34.738Z,3.67
2023-02-11T11:37:11.041Z,3.93
2023-02-11T11:39:37.476Z,3.94
2023-02-11T11:42:24.755Z,4.05
2023-02-11T11:45:04.585Z,4.10
2023-02-11T11:47:55.551Z,4.27
2023-02-11T11:50:43.764Z,3.92
2023-02-11T11:53:36.993Z,4.00
2023-02-11T11:56:18.363Z,3.93
2023-02-11T11:58:44.842Z,4.23
2023-02-11T12:01:33.046Z,4.23
2023-02-11T12:04:14.019Z,4.45
2023-02-11T12:07:18.036Z,4.28
2023-02-11T12:10:27.840Z,4.17
2023-02-11T12:13:17.148Z,4.29
2023-02-11T12:16:16.887Z,4.29
2023-02-11T12:19:01.852Z,4.50
2023-02-11T12:21:32.263Z,4.55
2023-02-11T12:24:19.351Z,4.69
2023-02-11T12:27:38.467Z,4.71
2023-02-11T12:30:39.765Z,4.54
2023-02-11T12:33:10.262Z,4.49
2023-02-11T12:35:41.829Z,4.82
2023-02-11T12:38:45.609Z,4.91
2023-02-11T12:41:44.197Z,4.99
2023-02-11T12:44:25.505Z,4.89
2023-02-11T12:47:15.222Z,5.02
2023-02-11T12:50:02.421Z,4.92
2023-02-11T12:52:46.972Z,5.03
2023-02-11T12:55:22.712Z,4.95
2023-02-11T12:57:52.331Z,5.08
2023-02-11T13:00:23.310Z,5.07
2023-02-11T13:03:03.383Z,4.98
2023-02-11T13:05:54.516Z,5.13
2023-02-11T13:08:40.758Z,5.04
2023-02-11T13:11:17.332Z,5.19
2023-02-11T13:14:14.513Z,4.99
2023-02-11T13:16:49.700Z,5.14
2023-02-11T13:19:42.494Z,4.97
2023-02-11T13:22:26.547Z,5.16
2023-02-11T13:25:03.843Z,5.29
2023-02-11T13:28:00.280Z,5.12
2023-02-11T13:30:32.975Z,4.99
2023-02-11T13:33:02.428Z,5.20
2023-02-11T13:35:40.027Z,5.04
2023-02-11T13:38:17.355Z,5.18
2023-02-11T13:40:44.635Z,5.27
2023-02-11T13:43:31.139Z,5.29
2023-02-11T13:46:06.075Z,5.35
2023-02-11T13:48:53.991Z,5.37
2023-02-11T13:51:37.781Z,5.28
2023-02-11T13:54:06.221Z,5.43
2023-02-11T13:56:35.808Z,5.56
2023-02-11T13:59:30.624Z,5.56
2023-02-11T14:02:18.549Z,5.69
2023-02-11T14:05:23.498Z,5.70
2023-02-11T14:08:33.511Z,5.48
2023-02-11T14:11:14.729Z,5.58
2023-02-11T14:13:47.202Z,5.62
2023-02-11T14:16:36.928Z,5.40
2023-02-11T14:19:10.104Z,5.49
2023-02-11T14:21:42.536Z,5.43
2023-02-11T14:24:13.032Z,5.46
2023-02-11T14:27:20.769Z,5.43
2023-02-11T14:30:20.148Z,5.54
2023-02-11T14:33:03.052Z,5.56
2023-02-11T14:35:38.797Z,5.45
2023-02-11T14:38:31.597Z,5.50
2023-02-11T14:41:07.042Z,5.50
2023-02-11T14:43:39.578Z,5.52
2023-02-11T14:46:06.230Z,5.50
2023-02-11T14:48:38.056Z,5.46
2023-02-11T14:51:18.551Z,5.43
2023-02-11T14:53:49.781Z,5.32
2023-02-11T14:56:22.611Z,5.41
2023-02-11T14:58:51.683Z,5.42
2023-02-11T15:01:45.743Z,5.28
2023-02-11T15:04:33.230Z,5.38
2023-02-11T15:07:05.839Z,5.23
2023-02-11T15:09:44.346Z,5.34
2023-02-11T15:12:20.191Z,5.29
2023-02-11T15:14:49.445Z,5.20
2023-02-11T15:17:21.108Z,5.17
2023-02-11T15:19:53.212Z,5.22
2023-02-11T15:22:32.850Z,5.14
2023-02-11T15:25:06.486Z,5.13
2023-02-11T15:27:40.594Z,5.07
2023-02-11T15:30:22.471Z,5.03
2023-02-11T15:32:50.977Z,4.94
2023-02-11T15:35:19.593Z,4.98
2023-02-11T15:37:46.433Z,5.07
2023-02-11T15:40:22.994Z,5.01
2023-02-11T15:43:13.890Z,4.70
2023-02-11T15:45:52.533Z,4.86
2023-02-11T15:48:34.211Z,4.87
2023-02-11T15:51:37.137Z,4.76
2023-02-11T15:54:23.974Z,4.79
2023-02-11T15:56:59.039Z,4.80
2023-02-11T15:59:35.311Z,4.87
2023-02-11T16:02:19.080Z,4.95
2023-02-11T16:05:32.622Z,4.72
2023-02-11T16:08:00.471Z,4.72
2023-02-11T16:10:33.443Z,4.75
2023-02-11T16:13:18.650Z,4.50
2023-02-11T16:15:52.474Z,4.56
2023-02-11T16:18:37.736Z,4.45
2023-02-11T16:21:07.377Z,4.54
2023-02-11T16:23:41.975Z,4.59
2023-02-11T16:26:22.643Z,4.50
2023-02-11T16:29:13.048Z,4.50
2023-02-11T16:31:43.184Z,4.47
2023-02-11T16:34:19.873Z,4.41
2023-02-11T16:36:50.122Z,4.46
2023-02-11T16:39:22.966Z,4.43
2023-02-11T16:41:52.091Z,4.31
2023-02-11T16:44:20.749Z,4.33
2023-02-11T16:46:54.874Z,4.28
2023-02-11T16:49:33.760Z,4.31
2023-02-11T16:52:18.782Z,4.26
2023-02-11T16:54:47.512Z,4.27
2023-02-11T16:57:20.076Z,4.29
2023-02-11T16:59:47.604Z,4.11
2023-02-11T17:02:24.124Z,4.08
2023-02-11T17:05:00.321Z,4.16
2023-02-11T17:07:27.759Z,4.23
2023-02-11T17:09:54.223Z,4.24
2023-02-11T17:12:32.908Z,4.22
2023-02-11T17:14:59.398Z,4.19
2023-02-11T17:17:25.858Z,4.26
2023-02-11T17:19:52.272Z,4.26
2023-02-11T17:22:18.858Z,4.26
2023-02-11T17:24:47.346Z,4.15
2023-02-11T17:27:13.885Z,4.20
2023-02-11T17:29:40.799Z,4.25
2023-02-11T17:32:15.447Z,4.19
2023-02-11T17:34:42.087Z,4.23
2023-02-11T17:37:15.818Z,4.23
2023-02-11T17:39:42.283Z,4.24
2023-02-11T17:42:11.760Z,4.26
2023-02-11T17:44:38.172Z,4.26
2023-02-11T17:47:04.618Z,4.27
2023-02-11T17:49:31.063Z,4.33
2023-02-11T17:51:57.653Z,4.29
2023-02-11T17:54:25.102Z,4.27
2023-02-11T17:56:55.225Z,4.35
2023-02-11T17:59:23.605Z,4.36
2023-02-11T18:01:49.987Z,4.31
2023-02-11T18:04:18.935Z,4.26
2023-02-11T18:06:46.792Z,4.23
2023-02-11T18:09:13.380Z,4.10
2023-02-11T18:11:40.283Z,4.10
2023-02-11T18:14:08.464Z,4.14
2023-02-11T18:16:36.574Z,4.15
2023-02-11T18:19:23.325Z,4.16
2023-02-11T18:21:50.898Z,4.16
2023-02-11T18:24:18.124Z,4.25
2023-02-11T18:26:44.516Z,4.20
2023-02-11T18:29:11.022Z,4.23
2023-02-11T18:31:37.870Z,4.24
2023-02-11T18:34:07.525Z,4.24
2023-02-11T18:36:34.714Z,4.26
2023-02-11T18:39:01.096Z,4.18
2023-02-11T18:41:27.889Z,4.15
2023-02-11T18:43:54.298Z,4.20
2023-02-11T18:46:20.770Z,4.14
2023-02-11T18:48:47.273Z,4.13
2023-02-11T18:51:15.962Z,4.09
2023-02-11T18:53:43.310Z,4.07
2023-02-11T18:56:12.353Z,4.04
2023-02-11T18:58:39.149Z,4.01
2023-02-11T19:01:19.511Z,4.01
2023-02-11T19:03:47.144Z,3.90
2023-02-11T19:06:15.684Z,3.92
2023-02-11T19:08:45.770Z,3.91
2023-02-11T19:11:12.368Z,3.90
2023-02-11T19:13:38.881Z,3.88
2023-02-11T19:16:10.172Z,3.92
2023-02-11T19:18:38.711Z,3.99
2023-02-11T19:21:10.530Z,3.99
2023-02-11T19:23:36.998Z,3.98
2023-02-11T19:26:04.576Z,3.91
2023-02-11T19:28:32.163Z,3.85
2023-02-11T19:31:05.399Z,3.84
2023-02-11T19:33:31.864Z,3.86
2023-02-11T19:36:07.133Z,3.86
2023-02-11T19:38:36.801Z,3.85
2023-02-11T19:41:03.492Z,3.81
2023-02-11T19:43:30.239Z,3.79
2023-02-11T19:45:57.610Z,3.79
2023-02-11T19:48:24.683Z,3.74
2023-02-11T19:50:55.080Z,3.72
2023-02-11T19:53:22.006Z,3.70
2023-02-11T19:55:49.151Z,3.66
2023-02-11T19:58:17.042Z,3.63
2023-02-11T20:00:43.803Z,3.65
2023-02-11T20:03:10.258Z,3.60
2023-02-11T20:05:40.001Z,3.54
2023-02-11T20:08:06.397Z,3.56
2023-02-11T20:10:34.355Z,3.49
2023-02-11T20:13:00.800Z,3.51
2023-02-11T20:15:27.294Z,3.52
2023-02-11T20:17:53.754Z,3.42
2023-02-11T20:20:25.217Z,3.47
2023-02-11T20:22:51.903Z,3.48
2023-02-11T20:25:18.343Z,3.41
2023-02-11T20:27:44.725Z,3.47
2023-02-11T20:30:11.681Z,3.48
2023-02-11T20:32:38.623Z,3.55
2023-02-11T20:35:07.216Z,3.59
2023-02-11T20:37:34.099Z,3.55
2023-02-11T20:40:00.575Z,3.64
2023-02-11T20:42:27.289Z,3.63
2023-02-11T20:44:53.725Z,3.59
2023-02-11T20:47:20.141Z,3.66
2023-02-11T20:49:46.540Z,3.68
2023-02-11T20:52:13.103Z,3.62
2023-02-11T20:54:39.564Z,3.60
2023-02-11T20:57:07.135Z,3.66
2023-02-11T20:59:33.583Z,3.61
2023-02-11T21:02:00.174Z,3.59
2023-02-11T21:04:29.972Z,3.63
2023-02-11T21:06:59.158Z,3.55
2023-02-11T21:09:29.107Z,3.54
2023-02-11T21:11:56.035Z,3.49
2023-02-11T21:14:23.944Z,3.50
2023-02-11T21:16:51.377Z,3.46
2023-02-11T21:19:18.329Z,3.45
2023-02-11T21:21:45.872Z,3.41
2023-02-11T21:24:12.907Z,3.40
2023-02-11T21:26:46.360Z,3.42
2023-02-11T21:29:12.822Z,3.42
2023-02-11T21:31:43.744Z,3.33
2023-02-11T21:34:10.864Z,3.45
2023-02-11T21:36:37.314Z,3.44
2023-02-11T21:39:04.535Z,3.46
2023-02-11T21:41:30.992Z,3.41
2023-02-11T21:44:00.604Z,3.41
2023-02-11T21:46:27.360Z,3.44
2023-02-11T21:48:53.919Z,3.50
2023-02-11T21:51:23.456Z,3.59
2023-02-11T21:54:01.331Z,3.55
2023-02-11T21:56:30.197Z,3.56
2023-02-11T21:58:59.177Z,3.48
2023-02-11T22:01:33.548Z,3.47
2023-02-11T22:04:01.107Z,3.41
2023-02-11T22:06:32.607Z,3.45
2023-02-11T22:09:02.554Z,3.31
2023-02-11T22:11:35.283Z,3.49
2023-02-11T22:14:01.786Z,3.45
2023-02-11T22:16:28.426Z,3.46
2023-02-11T22:18:58.177Z,3.44
2023-02-11T22:21:28.159Z,3.41
2023-02-11T22:23:55.949Z,3.42
2023-02-11T22:26:26.109Z,3.44
2023-02-11T22:28:53.609Z,3.51
2023-02-11T22:31:23.928Z,3.54
2023-02-11T22:33:50.763Z,3.45
2023-02-11T22:36:29.565Z,3.43
2023-02-11T22:39:08.753Z,3.42
2023-02-11T22:41:49.129Z,3.39
2023-02-11T22:44:17.193Z,3.46
2023-02-11T22:46:44.500Z,3.42
2023-02-11T22:49:17.025Z,3.44
2023-02-11T22:51:46.268Z,3.49
2023-02-11T22:54:17.246Z,3.55
2023-02-11T22:56:44.681Z,3.56
2023-02-11T22:59:16.414Z,3.53
2023-02-11T23:01:43.145Z,3.45
2023-02-11T23:04:12.802Z,3.46
2023-02-11T23:06:39.373Z,3.56
2023-02-11T23:09:07.828Z,3.47
2023-02-11T23:11:34.591Z,3.38
2023-02-11T23:14:02.913Z,3.34
2023-02-11T23:17:00.109Z,3.39
2023-02-11T23:19:26.712Z,3.49
2023-02-11T23:21:53.235Z,3.47
2023-02-11T23:24:20.716Z,3.52
2023-02-11T23:26:47.200Z,3.46
2023-02-11T23:29:15.761Z,3.45
2023-02-11T23:31:45.211Z,3.42
2023-02-11T23:34:16.993Z,3.40
2023-02-11T23:36:44.433Z,3.44
2023-02-11T23:39:15.417Z,3.41
2023-02-11T23:41:41.943Z,3.50
2023-02-11T23:44:09.947Z,3.48
2023-02-11T23:46:36.458Z,3.49
2023-02-11T23:49:05.125Z,3.49
2023-02-11T23:51:31.515Z,3.44
2023-02-11T23:54:02.442Z,3.56
2023-02-11T23:56:28.946Z,3.55
2023-02-11T23:58:58.581Z,3.62
